Terminal Aerodrome Forecast
Issued by NWS Portland, OR

Home | Current Version | Previous Version | Text Only | Print | Product List | Glossary On
Versions: 1 2 3 4 5 6 7 8 9 10 11 12 13 14 15
000
FTUS46 KPQR 290520
TAFAST
TAF
KAST 290520Z 2906/3006 29005KT P6SM OVC040
     FM291000 24006KT P6SM -RA BKN020 OVC060
     FM291300 23006KT 3SM -RA BR SCT008 OVC018
     FM291700 29013KT P6SM -SHRA OVC025
     FM300000 31013KT P6SM BKN035=

USA.gov is the U.S. government's official web portal to all federal, state and local government web resources and services.